Terminal Aerodrome Forecast
Issued by NWS

Home | Current Version | Previous Version | Text Only | Print | Product List | Glossary On
Versions: 1 2 3 4 5 6 7 8 9 10 11 12 13 14 15 16 17 18 19 20 21 22
000
FTUS44 KLIX 230701 AAA
TAFGPT
TAF AMD
KGPT 230701Z 2307/2406 18011KT P6SM BKN013 OVC025
     FM231100 18012G20KT P6SM SCT015 BKN035
     FM231400 17016G26KT P6SM BKN060
     FM232100 18013G20KT P6SM VCTS BKN040CB=

USA.gov is the U.S. government's official web portal to all federal, state and local government web resources and services.